Rio Branco の空港の天気 - METARとTAF

リオブランコ国際空港 ( SBRB / RBR ) - ブラジル アクレ州、Rio Branco
飛行場実況気象(Metar)
観測時間11/27 05:00 ACT (11/27 10:00 UTC)
風向・風速静穏 0m/s
視程10km以上
天気現象
なし
気温22℃
湿度94%
気圧1009hPa
METARSBRB 271000Z 00000KT CAVOK 22/21 Q1009
過去の天気等 Google飛行場航空写真 Wunderground天気予報

過去48時間のMETAR

飛行場予報(TAF)
発表時間: 11/26 19:45 ACT (11/27 00:45 UTC)
予報対象時間: 27日1時 ACT ~ 27日13時 ACT
風向・風速北西 2m/s
視程10km以上
全天の4割程度の雲 雲底高度 760m
27日2時 ACT から 確率 40% で
視程4000m
天気現象もや
全天の8割程度の雲 雲底高度 150m
27日8時 ACT ~ 27日10時 ACT に徐々に
風向・風速北西 4m/s
全天の4割程度の雲 雲底高度 610m
少しの塔状積雲 雲底高度 910m
TAF SBRB 270045Z 2706/2718 31003KT 9999 SCT025 TN23/2709Z TX34/2718Z
PROB40 2707/2711 4000 BR BKN005
BECMG 2713/2715 31007KT SCT020 FEW030TCU RMK PGU